sensor_id;sensor_type;location;lat;lon;timestamp;P1;durP1;ratioP1;P2;durP2;ratioP2
21095;SDS011;10706;49.036;12.112;2023-06-19T00:00:18;16.08;;;6.80;;
21095;SDS011;10706;49.036;12.112;2023-06-19T00:02:44;14.48;;;7.00;;
21095;SDS011;10706;49.036;12.112;2023-06-19T00:05:09;17.45;;;7.22;;
21095;SDS011;10706;49.036;12.112;2023-06-19T00:07:38;15.32;;;6.97;;
21095;SDS011;10706;49.036;12.112;2023-06-19T00:10:04;14.38;;;6.88;;
21095;SDS011;10706;49.036;12.112;2023-06-19T00:12:31;14.50;;;7.55;;
21095;SDS011;10706;49.036;12.112;2023-06-19T00:14:57;17.98;;;7.47;;
21095;SDS011;10706;49.036;12.112;2023-06-19T00:17:23;15.43;;;7.20;;
21095;SDS011;10706;49.036;12.112;2023-06-19T00:19:50;15.68;;;7.20;;
21095;SDS011;10706;49.036;12.112;2023-06-19T00:22:17;15.02;;;7.40;;
21095;SDS011;10706;49.036;12.112;2023-06-19T00:24:42;14.88;;;7.35;;
21095;SDS011;10706;49.036;12.112;2023-06-19T00:27:08;14.73;;;6.82;;
21095;SDS011;10706;49.036;12.112;2023-06-19T00:29:34;15.38;;;7.53;;
21095;SDS011;10706;49.036;12.112;2023-06-19T00:31:59;14.63;;;7.03;;
21095;SDS011;10706;49.036;12.112;2023-06-19T00:34:25;15.55;;;7.32;;
21095;SDS011;10706;49.036;12.112;2023-06-19T00:36:53;16.40;;;7.45;;
21095;SDS011;10706;49.036;12.112;2023-06-19T00:39:25;15.60;;;7.05;;
21095;SDS011;10706;49.036;12.112;2023-06-19T00:41:51;18.23;;;7.32;;
21095;SDS011;10706;49.036;12.112;2023-06-19T00:44:17;15.85;;;7.80;;
21095;SDS011;10706;49.036;12.112;2023-06-19T00:46:43;16.45;;;6.97;;
21095;SDS011;10706;49.036;12.112;2023-06-19T00:49:09;15.63;;;7.65;;
21095;SDS011;10706;49.036;12.112;2023-06-19T00:51:36;13.48;;;6.72;;
21095;SDS011;10706;49.036;12.112;2023-06-19T00:54:02;15.85;;;7.05;;
21095;SDS011;10706;49.036;12.112;2023-06-19T00:56:29;15.45;;;6.60;;
21095;SDS011;10706;49.036;12.112;2023-06-19T00:58:56;16.58;;;7.20;;
21095;SDS011;10706;49.036;12.112;2023-06-19T01:01:22;15.32;;;7.18;;
21095;SDS011;10706;49.036;12.112;2023-06-19T01:03:51;15.00;;;7.45;;
21095;SDS011;10706;49.036;12.112;2023-06-19T01:06:18;16.33;;;7.75;;
21095;SDS011;10706;49.036;12.112;2023-06-19T01:11:31;16.55;;;6.72;;
21095;SDS011;10706;49.036;12.112;2023-06-19T01:14:08;15.57;;;6.80;;
21095;SDS011;10706;49.036;12.112;2023-06-19T01:16:40;13.77;;;6.55;;
21095;SDS011;10706;49.036;12.112;2023-06-19T01:19:07;14.25;;;7.18;;
21095;SDS011;10706;49.036;12.112;2023-06-19T01:21:36;15.40;;;7.20;;
21095;SDS011;10706;49.036;12.112;2023-06-19T01:24:02;18.38;;;7.60;;
21095;SDS011;10706;49.036;12.112;2023-06-19T01:26:28;14.95;;;7.22;;
21095;SDS011;10706;49.036;12.112;2023-06-19T01:28:54;15.88;;;7.18;;
21095;SDS011;10706;49.036;12.112;2023-06-19T01:31:23;16.73;;;7.55;;
21095;SDS011;10706;49.036;12.112;2023-06-19T01:33:58;14.90;;;7.20;;
21095;SDS011;10706;49.036;12.112;2023-06-19T01:36:26;15.07;;;7.45;;
21095;SDS011;10706;49.036;12.112;2023-06-19T01:38:53;16.38;;;7.35;;
21095;SDS011;10706;49.036;12.112;2023-06-19T01:41:22;14.85;;;7.10;;
21095;SDS011;10706;49.036;12.112;2023-06-19T01:43:49;14.40;;;7.13;;
21095;SDS011;10706;49.036;12.112;2023-06-19T01:46:16;16.45;;;7.55;;
21095;SDS011;10706;49.036;12.112;2023-06-19T01:48:42;15.52;;;7.45;;
21095;SDS011;10706;49.036;12.112;2023-06-19T01:51:08;16.98;;;7.00;;
21095;SDS011;10706;49.036;12.112;2023-06-19T01:53:35;15.15;;;7.18;;
21095;SDS011;10706;49.036;12.112;2023-06-19T01:56:01;15.18;;;7.57;;
21095;SDS011;10706;49.036;12.112;2023-06-19T01:58:27;13.85;;;7.57;;
21095;SDS011;10706;49.036;12.112;2023-06-19T02:00:52;16.60;;;7.78;;
21095;SDS011;10706;49.036;12.112;2023-06-19T02:03:18;23.40;;;8.32;;
21095;SDS011;10706;49.036;12.112;2023-06-19T02:05:44;15.93;;;8.13;;
21095;SDS011;10706;49.036;12.112;2023-06-19T02:08:10;14.40;;;7.35;;
21095;SDS011;10706;49.036;12.112;2023-06-19T02:10:36;13.07;;;6.65;;
21095;SDS011;10706;49.036;12.112;2023-06-19T02:13:01;16.65;;;7.82;;
21095;SDS011;10706;49.036;12.112;2023-06-19T02:15:27;14.85;;;6.90;;
21095;SDS011;10706;49.036;12.112;2023-06-19T02:17:56;16.88;;;8.07;;
21095;SDS011;10706;49.036;12.112;2023-06-19T02:20:22;15.30;;;7.15;;
21095;SDS011;10706;49.036;12.112;2023-06-19T02:22:51;15.40;;;7.45;;
21095;SDS011;10706;49.036;12.112;2023-06-19T02:25:17;17.10;;;7.88;;
21095;SDS011;10706;49.036;12.112;2023-06-19T02:27:43;17.50;;;7.13;;
21095;SDS011;10706;49.036;12.112;2023-06-19T02:30:09;16.70;;;7.72;;
21095;SDS011;10706;49.036;12.112;2023-06-19T02:32:36;16.35;;;7.70;;
21095;SDS011;10706;49.036;12.112;2023-06-19T02:35:02;17.00;;;7.93;;
21095;SDS011;10706;49.036;12.112;2023-06-19T02:37:34;14.38;;;7.40;;
21095;SDS011;10706;49.036;12.112;2023-06-19T02:40:01;18.35;;;7.70;;
21095;SDS011;10706;49.036;12.112;2023-06-19T02:42:30;17.38;;;8.15;;
21095;SDS011;10706;49.036;12.112;2023-06-19T02:44:55;15.23;;;7.22;;
21095;SDS011;10706;49.036;12.112;2023-06-19T02:47:27;15.13;;;7.43;;
21095;SDS011;10706;49.036;12.112;2023-06-19T02:50:00;15.90;;;7.45;;
21095;SDS011;10706;49.036;12.112;2023-06-19T02:52:28;14.98;;;7.00;;
21095;SDS011;10706;49.036;12.112;2023-06-19T02:54:54;16.23;;;7.97;;
21095;SDS011;10706;49.036;12.112;2023-06-19T02:57:20;16.08;;;7.55;;
21095;SDS011;10706;49.036;12.112;2023-06-19T02:59:46;15.15;;;7.10;;
21095;SDS011;10706;49.036;12.112;2023-06-19T03:02:12;14.68;;;7.55;;
21095;SDS011;10706;49.036;12.112;2023-06-19T03:04:37;16.40;;;7.85;;
21095;SDS011;10706;49.036;12.112;2023-06-19T03:07:05;13.98;;;6.93;;
21095;SDS011;10706;49.036;12.112;2023-06-19T03:09:31;15.27;;;6.80;;
21095;SDS011;10706;49.036;12.112;2023-06-19T03:11:56;15.98;;;7.50;;
21095;SDS011;10706;49.036;12.112;2023-06-19T03:14:22;17.40;;;8.40;;
21095;SDS011;10706;49.036;12.112;2023-06-19T03:16:48;17.83;;;7.22;;
21095;SDS011;10706;49.036;12.112;2023-06-19T03:19:13;15.57;;;7.95;;
21095;SDS011;10706;49.036;12.112;2023-06-19T03:21:39;19.08;;;7.53;;
21095;SDS011;10706;49.036;12.112;2023-06-19T03:24:05;14.57;;;7.47;;
21095;SDS011;10706;49.036;12.112;2023-06-19T03:26:31;14.27;;;7.15;;
21095;SDS011;10706;49.036;12.112;2023-06-19T03:28:56;15.40;;;7.50;;
21095;SDS011;10706;49.036;12.112;2023-06-19T03:31:22;16.45;;;8.10;;
21095;SDS011;10706;49.036;12.112;2023-06-19T03:33:48;16.05;;;7.07;;
21095;SDS011;10706;49.036;12.112;2023-06-19T03:36:13;14.38;;;6.97;;
21095;SDS011;10706;49.036;12.112;2023-06-19T03:38:39;17.88;;;7.10;;
21095;SDS011;10706;49.036;12.112;2023-06-19T03:41:05;15.60;;;7.03;;
21095;SDS011;10706;49.036;12.112;2023-06-19T03:43:31;14.63;;;6.97;;
21095;SDS011;10706;49.036;12.112;2023-06-19T03:45:56;15.68;;;6.65;;
21095;SDS011;10706;49.036;12.112;2023-06-19T03:48:22;14.68;;;7.30;;
21095;SDS011;10706;49.036;12.112;2023-06-19T03:50:48;14.20;;;6.50;;
21095;SDS011;10706;49.036;12.112;2023-06-19T03:53:13;14.95;;;7.30;;
21095;SDS011;10706;49.036;12.112;2023-06-19T03:55:39;16.15;;;7.68;;
21095;SDS011;10706;49.036;12.112;2023-06-19T03:58:05;14.73;;;7.05;;
21095;SDS011;10706;49.036;12.112;2023-06-19T04:00:31;15.25;;;7.65;;
21095;SDS011;10706;49.036;12.112;2023-06-19T04:02:57;16.05;;;6.72;;
21095;SDS011;10706;49.036;12.112;2023-06-19T04:05:23;17.73;;;7.47;;
21095;SDS011;10706;49.036;12.112;2023-06-19T04:07:49;16.15;;;7.90;;
21095;SDS011;10706;49.036;12.112;2023-06-19T04:10:15;16.58;;;8.10;;
21095;SDS011;10706;49.036;12.112;2023-06-19T04:12:41;16.83;;;7.53;;
21095;SDS011;10706;49.036;12.112;2023-06-19T04:15:07;16.67;;;7.55;;
21095;SDS011;10706;49.036;12.112;2023-06-19T04:17:34;14.55;;;7.60;;
21095;SDS011;10706;49.036;12.112;2023-06-19T04:19:59;16.25;;;7.85;;
21095;SDS011;10706;49.036;12.112;2023-06-19T04:22:25;16.73;;;7.50;;
21095;SDS011;10706;49.036;12.112;2023-06-19T04:24:51;17.88;;;7.88;;
21095;SDS011;10706;49.036;12.112;2023-06-19T04:27:16;15.15;;;7.47;;
21095;SDS011;10706;49.036;12.112;2023-06-19T04:29:42;15.50;;;6.80;;
21095;SDS011;10706;49.036;12.112;2023-06-19T04:32:08;17.08;;;7.60;;
21095;SDS011;10706;49.036;12.112;2023-06-19T04:34:38;13.65;;;6.82;;
21095;SDS011;10706;49.036;12.112;2023-06-19T04:37:04;15.57;;;7.82;;
21095;SDS011;10706;49.036;12.112;2023-06-19T04:39:30;20.75;;;8.10;;
21095;SDS011;10706;49.036;12.112;2023-06-19T04:41:56;15.98;;;7.50;;
21095;SDS011;10706;49.036;12.112;2023-06-19T04:44:22;16.33;;;8.02;;
21095;SDS011;10706;49.036;12.112;2023-06-19T04:46:47;15.02;;;7.65;;
21095;SDS011;10706;49.036;12.112;2023-06-19T04:49:13;14.52;;;7.28;;
21095;SDS011;10706;49.036;12.112;2023-06-19T04:51:40;15.25;;;7.00;;
21095;SDS011;10706;49.036;12.112;2023-06-19T04:54:06;16.02;;;8.13;;
21095;SDS011;10706;49.036;12.112;2023-06-19T04:56:32;15.70;;;7.85;;
21095;SDS011;10706;49.036;12.112;2023-06-19T04:58:57;14.65;;;6.95;;
21095;SDS011;10706;49.036;12.112;2023-06-19T05:01:25;14.98;;;7.03;;
21095;SDS011;10706;49.036;12.112;2023-06-19T05:03:55;15.10;;;7.50;;
21095;SDS011;10706;49.036;12.112;2023-06-19T05:06:25;15.15;;;7.18;;
21095;SDS011;10706;49.036;12.112;2023-06-19T05:08:51;16.02;;;7.00;;
21095;SDS011;10706;49.036;12.112;2023-06-19T05:11:17;15.10;;;6.32;;
21095;SDS011;10706;49.036;12.112;2023-06-19T05:13:43;14.55;;;6.72;;
21095;SDS011;10706;49.036;12.112;2023-06-19T05:16:10;17.35;;;7.35;;
21095;SDS011;10706;49.036;12.112;2023-06-19T05:18:36;13.63;;;6.85;;
21095;SDS011;10706;49.036;12.112;2023-06-19T05:21:02;15.43;;;6.13;;
21095;SDS011;10706;49.036;12.112;2023-06-19T05:23:28;17.00;;;6.50;;
21095;SDS011;10706;49.036;12.112;2023-06-19T05:25:53;13.98;;;6.47;;
21095;SDS011;10706;49.036;12.112;2023-06-19T05:28:19;17.77;;;6.05;;
21095;SDS011;10706;49.036;12.112;2023-06-19T05:30:45;13.73;;;5.85;;
21095;SDS011;10706;49.036;12.112;2023-06-19T05:33:10;21.02;;;6.15;;
21095;SDS011;10706;49.036;12.112;2023-06-19T05:35:40;16.60;;;6.55;;
21095;SDS011;10706;49.036;12.112;2023-06-19T05:38:08;16.38;;;6.25;;
21095;SDS011;10706;49.036;12.112;2023-06-19T05:40:34;14.88;;;6.32;;
21095;SDS011;10706;49.036;12.112;2023-06-19T05:43:01;13.95;;;6.28;;
21095;SDS011;10706;49.036;12.112;2023-06-19T05:45:26;15.45;;;6.15;;
21095;SDS011;10706;49.036;12.112;2023-06-19T05:47:52;14.00;;;6.28;;
21095;SDS011;10706;49.036;12.112;2023-06-19T05:50:18;13.50;;;5.55;;
21095;SDS011;10706;49.036;12.112;2023-06-19T05:52:43;13.70;;;6.18;;
21095;SDS011;10706;49.036;12.112;2023-06-19T05:55:10;13.85;;;5.93;;
21095;SDS011;10706;49.036;12.112;2023-06-19T05:57:37;14.10;;;6.13;;
21095;SDS011;10706;49.036;12.112;2023-06-19T06:00:03;13.40;;;5.88;;
21095;SDS011;10706;49.036;12.112;2023-06-19T06:02:31;13.95;;;5.93;;
21095;SDS011;10706;49.036;12.112;2023-06-19T06:04:56;14.15;;;5.63;;
21095;SDS011;10706;49.036;12.112;2023-06-19T06:07:22;12.77;;;5.63;;
21095;SDS011;10706;49.036;12.112;2023-06-19T06:09:48;13.05;;;5.72;;
21095;SDS011;10706;49.036;12.112;2023-06-19T06:12:13;11.80;;;6.15;;
21095;SDS011;10706;49.036;12.112;2023-06-19T06:14:40;13.85;;;5.65;;
21095;SDS011;10706;49.036;12.112;2023-06-19T06:17:06;10.88;;;5.15;;
21095;SDS011;10706;49.036;12.112;2023-06-19T06:19:32;18.92;;;6.15;;
21095;SDS011;10706;49.036;12.112;2023-06-19T06:21:58;14.80;;;6.20;;
21095;SDS011;10706;49.036;12.112;2023-06-19T06:24:23;14.82;;;6.47;;
21095;SDS011;10706;49.036;12.112;2023-06-19T06:26:49;16.00;;;5.45;;
21095;SDS011;10706;49.036;12.112;2023-06-19T06:29:15;18.00;;;5.43;;
21095;SDS011;10706;49.036;12.112;2023-06-19T06:31:41;14.07;;;5.68;;
21095;SDS011;10706;49.036;12.112;2023-06-19T06:34:07;12.95;;;5.50;;
21095;SDS011;10706;49.036;12.112;2023-06-19T06:36:33;13.60;;;6.32;;
21095;SDS011;10706;49.036;12.112;2023-06-19T06:38:58;12.90;;;6.05;;
21095;SDS011;10706;49.036;12.112;2023-06-19T06:41:24;13.15;;;5.65;;
21095;SDS011;10706;49.036;12.112;2023-06-19T06:43:50;13.93;;;5.80;;
21095;SDS011;10706;49.036;12.112;2023-06-19T06:46:15;15.65;;;6.55;;
21095;SDS011;10706;49.036;12.112;2023-06-19T06:48:41;13.90;;;6.00;;
21095;SDS011;10706;49.036;12.112;2023-06-19T06:51:07;13.20;;;5.68;;
21095;SDS011;10706;49.036;12.112;2023-06-19T06:53:34;18.45;;;7.85;;
21095;SDS011;10706;49.036;12.112;2023-06-19T06:56:00;13.95;;;6.25;;
21095;SDS011;10706;49.036;12.112;2023-06-19T06:58:26;11.75;;;5.40;;
21095;SDS011;10706;49.036;12.112;2023-06-19T07:00:52;24.88;;;6.53;;
21095;SDS011;10706;49.036;12.112;2023-06-19T07:03:18;17.42;;;6.13;;
21095;SDS011;10706;49.036;12.112;2023-06-19T07:05:44;14.93;;;6.40;;
21095;SDS011;10706;49.036;12.112;2023-06-19T07:08:10;16.65;;;6.20;;
21095;SDS011;10706;49.036;12.112;2023-06-19T07:10:37;16.00;;;6.25;;
21095;SDS011;10706;49.036;12.112;2023-06-19T07:13:02;19.02;;;5.93;;
21095;SDS011;10706;49.036;12.112;2023-06-19T07:15:28;16.58;;;6.60;;
21095;SDS011;10706;49.036;12.112;2023-06-19T07:17:54;13.52;;;5.85;;
21095;SDS011;10706;49.036;12.112;2023-06-19T07:20:21;12.98;;;6.05;;
21095;SDS011;10706;49.036;12.112;2023-06-19T07:22:47;13.88;;;6.03;;
21095;SDS011;10706;49.036;12.112;2023-06-19T07:25:17;16.75;;;5.97;;
21095;SDS011;10706;49.036;12.112;2023-06-19T07:27:43;15.10;;;5.93;;
21095;SDS011;10706;49.036;12.112;2023-06-19T07:30:09;15.55;;;6.88;;
21095;SDS011;10706;49.036;12.112;2023-06-19T07:32:36;15.88;;;6.13;;
21095;SDS011;10706;49.036;12.112;2023-06-19T07:35:03;19.83;;;6.80;;
21095;SDS011;10706;49.036;12.112;2023-06-19T07:37:30;14.60;;;6.25;;
21095;SDS011;10706;49.036;12.112;2023-06-19T07:39:56;15.98;;;6.68;;
21095;SDS011;10706;49.036;12.112;2023-06-19T07:42:21;14.65;;;6.47;;
21095;SDS011;10706;49.036;12.112;2023-06-19T07:44:48;17.42;;;5.93;;
21095;SDS011;10706;49.036;12.112;2023-06-19T07:47:17;14.75;;;7.00;;
21095;SDS011;10706;49.036;12.112;2023-06-19T07:49:43;13.48;;;6.70;;
21095;SDS011;10706;49.036;12.112;2023-06-19T07:52:10;14.90;;;6.63;;
21095;SDS011;10706;49.036;12.112;2023-06-19T07:54:36;15.32;;;6.72;;
21095;SDS011;10706;49.036;12.112;2023-06-19T07:57:16;15.55;;;6.88;;
21095;SDS011;10706;49.036;12.112;2023-06-19T07:59:42;15.10;;;6.38;;
21095;SDS011;10706;49.036;12.112;2023-06-19T08:02:07;12.02;;;5.53;;
21095;SDS011;10706;49.036;12.112;2023-06-19T08:04:33;14.52;;;6.47;;
21095;SDS011;10706;49.036;12.112;2023-06-19T08:06:59;14.02;;;6.60;;
21095;SDS011;10706;49.036;12.112;2023-06-19T08:09:24;14.27;;;6.38;;
21095;SDS011;10706;49.036;12.112;2023-06-19T08:11:50;13.60;;;7.18;;
21095;SDS011;10706;49.036;12.112;2023-06-19T08:14:16;14.35;;;6.72;;
21095;SDS011;10706;49.036;12.112;2023-06-19T08:16:42;14.75;;;6.32;;
21095;SDS011;10706;49.036;12.112;2023-06-19T08:19:07;13.98;;;6.40;;
21095;SDS011;10706;49.036;12.112;2023-06-19T08:21:33;18.02;;;7.32;;
21095;SDS011;10706;49.036;12.112;2023-06-19T08:23:59;17.65;;;6.35;;
21095;SDS011;10706;49.036;12.112;2023-06-19T08:26:25;15.82;;;6.88;;
21095;SDS011;10706;49.036;12.112;2023-06-19T08:28:50;17.23;;;6.65;;
21095;SDS011;10706;49.036;12.112;2023-06-19T08:31:16;14.90;;;7.00;;
21095;SDS011;10706;49.036;12.112;2023-06-19T08:33:42;16.83;;;6.65;;
21095;SDS011;10706;49.036;12.112;2023-06-19T08:36:08;14.10;;;6.90;;
21095;SDS011;10706;49.036;12.112;2023-06-19T08:38:34;15.43;;;6.85;;
21095;SDS011;10706;49.036;12.112;2023-06-19T08:41:00;17.13;;;7.03;;
21095;SDS011;10706;49.036;12.112;2023-06-19T08:43:25;15.15;;;7.35;;
21095;SDS011;10706;49.036;12.112;2023-06-19T08:45:56;64.75;;;10.80;;
21095;SDS011;10706;49.036;12.112;2023-06-19T08:48:37;18.30;;;7.00;;
21095;SDS011;10706;49.036;12.112;2023-06-19T08:51:04;18.90;;;6.93;;
21095;SDS011;10706;49.036;12.112;2023-06-19T08:53:32;16.70;;;7.72;;
21095;SDS011;10706;49.036;12.112;2023-06-19T08:56:02;17.05;;;7.43;;
21095;SDS011;10706;49.036;12.112;2023-06-19T08:58:28;14.13;;;5.95;;
21095;SDS011;10706;49.036;12.112;2023-06-19T09:00:54;14.13;;;6.57;;
21095;SDS011;10706;49.036;12.112;2023-06-19T09:03:24;14.68;;;6.70;;
21095;SDS011;10706;49.036;12.112;2023-06-19T09:05:49;15.23;;;6.78;;
21095;SDS011;10706;49.036;12.112;2023-06-19T09:08:16;18.48;;;7.40;;
21095;SDS011;10706;49.036;12.112;2023-06-19T09:10:53;15.88;;;7.00;;
21095;SDS011;10706;49.036;12.112;2023-06-19T09:13:27;15.80;;;6.57;;
21095;SDS011;10706;49.036;12.112;2023-06-19T09:16:01;14.65;;;6.80;;
21095;SDS011;10706;49.036;12.112;2023-06-19T09:18:30;16.77;;;5.88;;
21095;SDS011;10706;49.036;12.112;2023-06-19T09:21:06;14.18;;;6.13;;
21095;SDS011;10706;49.036;12.112;2023-06-19T09:23:39;13.80;;;5.85;;
21095;SDS011;10706;49.036;12.112;2023-06-19T09:26:05;13.88;;;5.95;;
21095;SDS011;10706;49.036;12.112;2023-06-19T09:28:30;12.38;;;6.05;;
21095;SDS011;10706;49.036;12.112;2023-06-19T09:31:01;15.93;;;6.03;;
21095;SDS011;10706;49.036;12.112;2023-06-19T09:33:28;14.30;;;5.88;;
21095;SDS011;10706;49.036;12.112;2023-06-19T09:35:57;23.58;;;5.93;;
21095;SDS011;10706;49.036;12.112;2023-06-19T09:38:27;14.25;;;5.03;;
21095;SDS011;10706;49.036;12.112;2023-06-19T09:40:56;11.10;;;5.10;;
21095;SDS011;10706;49.036;12.112;2023-06-19T09:43:26;10.43;;;4.45;;
21095;SDS011;10706;49.036;12.112;2023-06-19T09:46:09;11.45;;;4.45;;
21095;SDS011;10706;49.036;12.112;2023-06-19T09:48:40;10.45;;;4.80;;
21095;SDS011;10706;49.036;12.112;2023-06-19T09:51:28;10.15;;;5.10;;
21095;SDS011;10706;49.036;12.112;2023-06-19T09:53:58;11.48;;;4.30;;
21095;SDS011;10706;49.036;12.112;2023-06-19T09:56:25;9.55;;;4.13;;
21095;SDS011;10706;49.036;12.112;2023-06-19T09:58:53;11.25;;;4.88;;
21095;SDS011;10706;49.036;12.112;2023-06-19T10:01:25;10.73;;;4.38;;
21095;SDS011;10706;49.036;12.112;2023-06-19T10:04:02;8.85;;;4.38;;
21095;SDS011;10706;49.036;12.112;2023-06-19T10:06:41;12.82;;;4.97;;
21095;SDS011;10706;49.036;12.112;2023-06-19T10:09:13;10.52;;;4.50;;
21095;SDS011;10706;49.036;12.112;2023-06-19T10:11:53;10.85;;;4.60;;
21095;SDS011;10706;49.036;12.112;2023-06-19T10:14:19;11.20;;;4.63;;
21095;SDS011;10706;49.036;12.112;2023-06-19T10:16:47;11.90;;;4.80;;
21095;SDS011;10706;49.036;12.112;2023-06-19T10:19:14;13.68;;;4.43;;
21095;SDS011;10706;49.036;12.112;2023-06-19T10:21:49;10.40;;;4.50;;
21095;SDS011;10706;49.036;12.112;2023-06-19T10:24:18;12.38;;;4.50;;
21095;SDS011;10706;49.036;12.112;2023-06-19T10:27:01;9.75;;;4.35;;
21095;SDS011;10706;49.036;12.112;2023-06-19T10:29:40;13.90;;;4.97;;
21095;SDS011;10706;49.036;12.112;2023-06-19T10:32:06;14.30;;;4.70;;
21095;SDS011;10706;49.036;12.112;2023-06-19T10:34:35;11.43;;;4.53;;
21095;SDS011;10706;49.036;12.112;2023-06-19T10:37:01;11.50;;;5.07;;
21095;SDS011;10706;49.036;12.112;2023-06-19T10:39:28;10.75;;;4.68;;
21095;SDS011;10706;49.036;12.112;2023-06-19T10:41:55;10.68;;;5.05;;
21095;SDS011;10706;49.036;12.112;2023-06-19T10:44:23;10.82;;;5.05;;
21095;SDS011;10706;49.036;12.112;2023-06-19T10:46:50;13.00;;;5.30;;
21095;SDS011;10706;49.036;12.112;2023-06-19T10:49:18;13.55;;;5.10;;
21095;SDS011;10706;49.036;12.112;2023-06-19T10:51:44;9.30;;;4.05;;
21095;SDS011;10706;49.036;12.112;2023-06-19T10:54:09;8.73;;;3.90;;
21095;SDS011;10706;49.036;12.112;2023-06-19T10:56:35;9.90;;;3.85;;
21095;SDS011;10706;49.036;12.112;2023-06-19T10:59:02;9.77;;;4.28;;
21095;SDS011;10706;49.036;12.112;2023-06-19T11:01:40;8.60;;;3.60;;
21095;SDS011;10706;49.036;12.112;2023-06-19T11:04:13;9.10;;;3.72;;
21095;SDS011;10706;49.036;12.112;2023-06-19T11:06:41;9.05;;;3.85;;
21095;SDS011;10706;49.036;12.112;2023-06-19T11:09:11;8.43;;;3.70;;
21095;SDS011;10706;49.036;12.112;2023-06-19T11:11:42;8.13;;;4.00;;
21095;SDS011;10706;49.036;12.112;2023-06-19T11:14:12;6.57;;;3.20;;
21095;SDS011;10706;49.036;12.112;2023-06-19T11:16:42;6.80;;;3.22;;
21095;SDS011;10706;49.036;12.112;2023-06-19T11:19:16;7.85;;;3.40;;
21095;SDS011;10706;49.036;12.112;2023-06-19T11:21:45;8.88;;;3.72;;
21095;SDS011;10706;49.036;12.112;2023-06-19T11:24:16;8.70;;;3.70;;
21095;SDS011;10706;49.036;12.112;2023-06-19T11:26:44;8.45;;;3.97;;
21095;SDS011;10706;49.036;12.112;2023-06-19T11:31:43;8.77;;;3.70;;
21095;SDS011;10706;49.036;12.112;2023-06-19T11:34:10;8.70;;;4.10;;
21095;SDS011;10706;49.036;12.112;2023-06-19T11:36:37;9.57;;;3.88;;
21095;SDS011;10706;49.036;12.112;2023-06-19T11:39:03;8.38;;;4.05;;
21095;SDS011;10706;49.036;12.112;2023-06-19T11:41:34;8.90;;;4.03;;
21095;SDS011;10706;49.036;12.112;2023-06-19T11:44:04;10.93;;;3.80;;
21095;SDS011;10706;49.036;12.112;2023-06-19T11:46:36;9.38;;;3.63;;
21095;SDS011;10706;49.036;12.112;2023-06-19T11:49:09;8.38;;;3.80;;
21095;SDS011;10706;49.036;12.112;2023-06-19T11:51:37;10.18;;;3.95;;
21095;SDS011;10706;49.036;12.112;2023-06-19T11:54:07;8.52;;;4.05;;
21095;SDS011;10706;49.036;12.112;2023-06-19T11:56:35;8.45;;;3.92;;
21095;SDS011;10706;49.036;12.112;2023-06-19T11:59:05;11.38;;;4.10;;
21095;SDS011;10706;49.036;12.112;2023-06-19T12:01:31;9.85;;;4.03;;
21095;SDS011;10706;49.036;12.112;2023-06-19T12:03:59;8.98;;;3.78;;
21095;SDS011;10706;49.036;12.112;2023-06-19T12:06:26;11.73;;;3.72;;
21095;SDS011;10706;49.036;12.112;2023-06-19T12:08:53;8.10;;;3.30;;
21095;SDS011;10706;49.036;12.112;2023-06-19T12:11:19;8.07;;;3.42;;
21095;SDS011;10706;49.036;12.112;2023-06-19T12:13:45;8.82;;;3.83;;
21095;SDS011;10706;49.036;12.112;2023-06-19T12:16:11;7.82;;;3.75;;
21095;SDS011;10706;49.036;12.112;2023-06-19T12:18:39;9.25;;;3.53;;
21095;SDS011;10706;49.036;12.112;2023-06-19T12:21:05;7.72;;;3.33;;
21095;SDS011;10706;49.036;12.112;2023-06-19T12:23:31;8.60;;;3.30;;
21095;SDS011;10706;49.036;12.112;2023-06-19T12:25:57;6.93;;;3.22;;
21095;SDS011;10706;49.036;12.112;2023-06-19T12:28:23;7.75;;;3.25;;
21095;SDS011;10706;49.036;12.112;2023-06-19T12:30:50;7.00;;;3.28;;
21095;SDS011;10706;49.036;12.112;2023-06-19T12:33:17;5.80;;;3.00;;
21095;SDS011;10706;49.036;12.112;2023-06-19T12:35:44;15.00;;;3.90;;
21095;SDS011;10706;49.036;12.112;2023-06-19T12:38:10;6.03;;;3.08;;
21095;SDS011;10706;49.036;12.112;2023-06-19T12:40:36;8.48;;;2.75;;
21095;SDS011;10706;49.036;12.112;2023-06-19T12:43:03;7.00;;;3.20;;
21095;SDS011;10706;49.036;12.112;2023-06-19T12:45:29;6.30;;;2.83;;
21095;SDS011;10706;49.036;12.112;2023-06-19T12:47:55;7.10;;;3.50;;
21095;SDS011;10706;49.036;12.112;2023-06-19T12:50:21;6.18;;;3.42;;
21095;SDS011;10706;49.036;12.112;2023-06-19T12:52:47;7.38;;;3.67;;
21095;SDS011;10706;49.036;12.112;2023-06-19T12:55:13;8.48;;;3.60;;
21095;SDS011;10706;49.036;12.112;2023-06-19T12:57:40;7.80;;;3.47;;
21095;SDS011;10706;49.036;12.112;2023-06-19T13:00:07;6.40;;;3.10;;
21095;SDS011;10706;49.036;12.112;2023-06-19T13:02:36;6.90;;;3.30;;
21095;SDS011;10706;49.036;12.112;2023-06-19T13:05:04;6.30;;;2.75;;
21095;SDS011;10706;49.036;12.112;2023-06-19T13:07:31;5.90;;;2.70;;
21095;SDS011;10706;49.036;12.112;2023-06-19T13:09:57;8.30;;;2.92;;
21095;SDS011;10706;49.036;12.112;2023-06-19T13:12:24;8.25;;;2.95;;
21095;SDS011;10706;49.036;12.112;2023-06-19T13:14:50;7.32;;;2.83;;
21095;SDS011;10706;49.036;12.112;2023-06-19T13:17:16;3.85;;;2.42;;
21095;SDS011;10706;49.036;12.112;2023-06-19T13:19:42;6.47;;;3.03;;
21095;SDS011;10706;49.036;12.112;2023-06-19T13:22:08;6.68;;;3.03;;
21095;SDS011;10706;49.036;12.112;2023-06-19T13:24:33;7.85;;;2.70;;
21095;SDS011;10706;49.036;12.112;2023-06-19T13:26:59;6.97;;;2.67;;
21095;SDS011;10706;49.036;12.112;2023-06-19T13:29:25;5.25;;;2.40;;
21095;SDS011;10706;49.036;12.112;2023-06-19T13:31:51;5.32;;;2.60;;
21095;SDS011;10706;49.036;12.112;2023-06-19T13:34:16;6.63;;;2.78;;
21095;SDS011;10706;49.036;12.112;2023-06-19T13:36:43;5.25;;;2.30;;
21095;SDS011;10706;49.036;12.112;2023-06-19T13:39:09;5.28;;;2.40;;
21095;SDS011;10706;49.036;12.112;2023-06-19T13:41:35;4.28;;;2.30;;
21095;SDS011;10706;49.036;12.112;2023-06-19T13:44:01;4.18;;;2.50;;
21095;SDS011;10706;49.036;12.112;2023-06-19T13:46:28;5.75;;;2.55;;
21095;SDS011;10706;49.036;12.112;2023-06-19T13:48:56;4.65;;;2.55;;
21095;SDS011;10706;49.036;12.112;2023-06-19T13:51:22;6.10;;;2.65;;
21095;SDS011;10706;49.036;12.112;2023-06-19T13:53:49;4.45;;;2.45;;
21095;SDS011;10706;49.036;12.112;2023-06-19T13:56:16;3.58;;;2.38;;
21095;SDS011;10706;49.036;12.112;2023-06-19T13:58:42;5.88;;;2.65;;
21095;SDS011;10706;49.036;12.112;2023-06-19T14:01:08;4.75;;;2.40;;
21095;SDS011;10706;49.036;12.112;2023-06-19T14:03:36;4.28;;;2.45;;
21095;SDS011;10706;49.036;12.112;2023-06-19T14:06:06;6.47;;;2.80;;
21095;SDS011;10706;49.036;12.112;2023-06-19T14:08:32;8.32;;;3.65;;
21095;SDS011;10706;49.036;12.112;2023-06-19T14:10:58;8.25;;;3.05;;
21095;SDS011;10706;49.036;12.112;2023-06-19T14:13:24;6.47;;;3.00;;
21095;SDS011;10706;49.036;12.112;2023-06-19T14:15:49;6.00;;;2.92;;
21095;SDS011;10706;49.036;12.112;2023-06-19T14:18:16;9.65;;;3.15;;
21095;SDS011;10706;49.036;12.112;2023-06-19T14:20:41;7.13;;;3.45;;
21095;SDS011;10706;49.036;12.112;2023-06-19T14:23:07;7.88;;;3.33;;
21095;SDS011;10706;49.036;12.112;2023-06-19T14:25:33;13.40;;;4.00;;
21095;SDS011;10706;49.036;12.112;2023-06-19T14:27:59;7.47;;;3.55;;